createdAt,value
2023-02-24T00:01:52.873Z,3.37
2023-02-24T00:04:21.006Z,3.29
2023-02-24T00:06:48.499Z,3.26
2023-02-24T00:09:26.398Z,3.21
2023-02-24T00:11:59.490Z,3.22
2023-02-24T00:14:29.566Z,3.21
2023-02-24T00:16:58.784Z,3.18
2023-02-24T00:19:29.240Z,3.19
2023-02-24T00:21:56.207Z,3.21
2023-02-24T00:24:23.618Z,3.23
2023-02-24T00:26:55.102Z,3.26
2023-02-24T00:29:24.271Z,3.36
2023-02-24T00:32:06.903Z,3.46
2023-02-24T00:34:36.475Z,3.43
2023-02-24T00:37:07.017Z,3.36
2023-02-24T00:39:35.542Z,3.35
2023-02-24T00:42:05.912Z,3.34
2023-02-24T00:44:39.146Z,3.29
2023-02-24T00:47:08.148Z,3.26
2023-02-24T00:49:42.743Z,3.22
2023-02-24T00:52:15.078Z,3.16
2023-02-24T00:54:45.170Z,3.08
2023-02-24T00:57:13.069Z,3.03
2023-02-24T00:59:40.347Z,2.98
2023-02-24T01:02:11.815Z,2.93
2023-02-24T01:04:41.074Z,2.90
2023-02-24T01:07:11.008Z,2.88
2023-02-24T01:09:41.579Z,2.86
2023-02-24T01:12:19.538Z,2.82
2023-02-24T01:14:48.545Z,2.78
2023-02-24T01:17:18.362Z,2.72
2023-02-24T01:19:49.221Z,2.62
2023-02-24T01:22:18.621Z,2.62
2023-02-24T01:24:47.244Z,2.62
2023-02-24T01:27:17.801Z,2.64
2023-02-24T01:29:46.427Z,2.61
2023-02-24T01:32:19.941Z,2.60
2023-02-24T01:34:52.469Z,2.78
2023-02-24T01:37:21.224Z,2.92
2023-02-24T01:39:49.000Z,2.99
2023-02-24T01:42:22.142Z,3.07
2023-02-24T01:44:52.924Z,3.17
2023-02-24T01:47:21.493Z,3.19
2023-02-24T01:49:52.785Z,3.21
2023-02-24T01:52:26.728Z,3.24
2023-02-24T01:55:02.991Z,3.27
2023-02-24T01:57:33.512Z,3.28
2023-02-24T02:00:12.476Z,3.30
2023-02-24T02:02:46.538Z,3.34
2023-02-24T02:05:17.212Z,3.38
2023-02-24T02:07:45.675Z,3.33
2023-02-24T02:10:14.866Z,3.34
2023-02-24T02:12:44.680Z,3.31
2023-02-24T02:15:15.518Z,3.31
2023-02-24T02:18:12.549Z,3.30
2023-02-24T02:21:02.650Z,3.39
2023-02-24T02:24:01.170Z,3.39
2023-02-24T02:27:04.701Z,3.39
2023-02-24T02:29:41.555Z,3.39
2023-02-24T02:32:53.295Z,3.44
2023-02-24T02:35:37.197Z,3.50
2023-02-24T02:38:15.308Z,3.61
2023-02-24T02:41:07.336Z,3.71
2023-02-24T02:44:13.035Z,3.74
2023-02-24T02:46:48.070Z,3.66
2023-02-24T02:49:55.714Z,3.55
2023-02-24T02:52:34.748Z,3.49
2023-02-24T02:55:10.479Z,3.47
2023-02-24T02:57:40.292Z,3.49
2023-02-24T03:00:23.379Z,3.54
2023-02-24T03:02:58.235Z,3.59
2023-02-24T03:05:29.876Z,3.60
2023-02-24T03:07:59.238Z,3.63
2023-02-24T03:10:29.089Z,3.65
2023-02-24T03:13:00.552Z,3.72
2023-02-24T03:15:32.874Z,3.79
2023-02-24T03:18:12.179Z,3.87
2023-02-24T03:20:44.379Z,4.09
2023-02-24T03:23:16.898Z,4.16
2023-02-24T03:25:54.868Z,4.24
2023-02-24T03:28:32.373Z,4.29
2023-02-24T03:31:11.104Z,4.36
2023-02-24T03:33:45.095Z,4.38
2023-02-24T03:36:15.045Z,4.41
2023-02-24T03:38:42.990Z,4.48
2023-02-24T03:41:13.539Z,4.52
2023-02-24T03:43:46.849Z,4.56
2023-02-24T03:46:17.025Z,4.56
2023-02-24T03:49:02.985Z,4.56
2023-02-24T03:51:31.769Z,4.60
2023-02-24T03:54:31.110Z,4.63
2023-02-24T03:57:54.855Z,4.62
2023-02-24T04:00:54.165Z,4.64
2023-02-24T04:03:44.495Z,4.69
2023-02-24T04:06:58.104Z,4.68
2023-02-24T04:09:40.670Z,4.63
2023-02-24T04:12:18.954Z,4.65
2023-02-24T04:14:51.199Z,4.64
2023-02-24T04:17:21.150Z,4.69
2023-02-24T04:19:55.944Z,4.76
2023-02-24T04:22:26.886Z,4.81
2023-02-24T04:25:00.509Z,4.81
2023-02-24T04:27:28.948Z,4.77
2023-02-24T04:30:05.924Z,4.82
2023-02-24T04:32:34.013Z,4.81
2023-02-24T04:35:05.345Z,4.84
2023-02-24T04:37:38.679Z,4.89
2023-02-24T04:40:10.893Z,4.92
2023-02-24T04:42:46.690Z,4.89
2023-02-24T04:45:19.083Z,4.96
2023-02-24T04:47:49.547Z,5.02
2023-02-24T04:50:23.201Z,5.04
2023-02-24T04:53:02.006Z,5.05
2023-02-24T04:55:33.364Z,5.04
2023-02-24T04:58:02.233Z,5.05
2023-02-24T05:00:36.125Z,5.03
2023-02-24T05:03:05.508Z,5.02
2023-02-24T05:05:33.676Z,5.00
2023-02-24T05:08:04.862Z,5.00
2023-02-24T05:10:38.217Z,4.99
2023-02-24T05:13:06.991Z,5.00
2023-02-24T05:15:33.939Z,4.98
2023-02-24T05:18:24.389Z,4.99
2023-02-24T05:21:15.717Z,5.00
2023-02-24T05:23:47.045Z,4.98
2023-02-24T05:26:17.819Z,4.98
2023-02-24T05:28:49.433Z,4.96
2023-02-24T05:31:20.145Z,4.98
2023-02-24T05:33:51.284Z,5.02
2023-02-24T05:36:19.426Z,4.99
2023-02-24T05:38:56.722Z,4.97
2023-02-24T05:41:32.632Z,4.97
2023-02-24T05:44:02.568Z,4.96
2023-02-24T05:46:32.771Z,4.95
2023-02-24T05:49:02.502Z,4.93
2023-02-24T05:51:36.050Z,4.91
2023-02-24T05:54:08.147Z,4.94
2023-02-24T05:56:38.783Z,4.94
2023-02-24T05:59:09.071Z,4.94
2023-02-24T06:01:37.824Z,4.95
2023-02-24T06:04:08.100Z,4.91
2023-02-24T06:06:37.222Z,4.96
2023-02-24T06:09:11.082Z,4.99
2023-02-24T06:11:40.742Z,4.98
2023-02-24T06:14:10.113Z,4.99
2023-02-24T06:16:40.098Z,5.03
2023-02-24T06:19:09.513Z,5.03
2023-02-24T06:21:41.377Z,5.02
2023-02-24T06:24:15.487Z,4.99
2023-02-24T06:26:46.002Z,5.00
2023-02-24T06:29:15.005Z,4.99
2023-02-24T06:31:45.350Z,4.99
2023-02-24T06:34:18.546Z,5.00
2023-02-24T06:36:47.091Z,5.04
2023-02-24T06:39:14.696Z,5.04
2023-02-24T06:41:42.796Z,5.06
2023-02-24T06:44:09.769Z,5.05
2023-02-24T06:46:37.340Z,5.04
2023-02-24T06:49:04.416Z,5.05
2023-02-24T06:51:32.021Z,5.04
2023-02-24T06:53:59.728Z,5.05
2023-02-24T06:56:27.897Z,5.08
2023-02-24T06:58:56.928Z,5.06
2023-02-24T07:01:28.112Z,5.06
2023-02-24T07:04:17.643Z,5.07
2023-02-24T07:06:49.485Z,5.06
2023-02-24T07:09:18.883Z,5.09
2023-02-24T07:11:52.031Z,5.10
2023-02-24T07:14:21.828Z,5.10
2023-02-24T07:16:54.349Z,5.13
2023-02-24T07:19:25.037Z,5.15
2023-02-24T07:22:03.748Z,5.15
2023-02-24T07:24:36.753Z,5.16
2023-02-24T07:27:07.832Z,5.18
2023-02-24T07:29:37.835Z,5.21
2023-02-24T07:32:08.971Z,5.22
2023-02-24T07:34:40.388Z,5.23
2023-02-24T07:37:09.504Z,5.24
2023-02-24T07:39:39.168Z,5.23
2023-02-24T07:42:08.365Z,5.27
2023-02-24T07:44:45.296Z,5.31
2023-02-24T07:47:12.247Z,5.33
2023-02-24T07:49:40.954Z,5.34
2023-02-24T07:52:08.565Z,5.36
2023-02-24T07:54:35.983Z,5.40
2023-02-24T07:57:03.267Z,5.42
2023-02-24T07:59:32.709Z,5.47
2023-02-24T08:02:00.672Z,5.51
2023-02-24T08:04:30.430Z,5.52
2023-02-24T08:07:02.954Z,5.57
2023-02-24T08:09:46.575Z,5.59
2023-02-24T08:12:22.243Z,5.65
2023-02-24T08:14:53.895Z,5.67
2023-02-24T08:17:23.324Z,5.72
2023-02-24T08:20:12.235Z,5.76
2023-02-24T08:22:44.061Z,5.80
2023-02-24T08:25:18.594Z,5.90
2023-02-24T08:28:07.441Z,5.92
2023-02-24T08:30:39.850Z,5.96
2023-02-24T08:33:10.287Z,6.01
2023-02-24T08:35:44.809Z,6.04
2023-02-24T08:38:16.691Z,6.06
2023-02-24T08:40:55.073Z,6.10
2023-02-24T08:43:29.598Z,6.15
2023-02-24T08:46:18.634Z,6.22
2023-02-24T08:48:49.767Z,6.28
2023-02-24T08:51:29.099Z,6.33
2023-02-24T08:53:59.297Z,6.33
2023-02-24T08:56:34.895Z,6.37
2023-02-24T08:59:06.023Z,6.45
2023-02-24T09:01:37.148Z,6.50
2023-02-24T09:04:19.257Z,6.62
2023-02-24T09:06:47.885Z,6.77
2023-02-24T09:09:23.769Z,6.90
2023-02-24T09:11:56.571Z,7.10
2023-02-24T09:14:29.613Z,7.28
2023-02-24T09:17:11.712Z,7.37
2023-02-24T09:19:47.730Z,7.33
2023-02-24T09:22:31.463Z,7.45
2023-02-24T09:25:18.330Z,7.43
2023-02-24T09:28:09.221Z,7.35
2023-02-24T09:30:52.672Z,7.39
2023-02-24T09:33:38.844Z,7.48
2023-02-24T09:36:13.027Z,7.55
2023-02-24T09:39:01.722Z,7.65
2023-02-24T09:42:02.517Z,7.70
2023-02-24T09:44:55.750Z,7.87
2023-02-24T09:47:40.134Z,8.02
2023-02-24T09:50:55.146Z,8.16
2023-02-24T09:53:17.823Z,8.08
2023-02-24T09:56:04.771Z,8.17
2023-02-24T09:59:10.503Z,8.20
2023-02-24T10:01:55.292Z,8.33
2023-02-24T10:04:36.164Z,8.47
2023-02-24T10:07:11.418Z,8.41
2023-02-24T10:10:18.643Z,8.39
2023-02-24T10:13:17.208Z,8.29
2023-02-24T10:15:59.503Z,8.23
2023-02-24T10:18:33.622Z,8.09
2023-02-24T10:21:09.544Z,8.06
2023-02-24T10:23:47.183Z,8.05
2023-02-24T10:26:32.226Z,8.15
2023-02-24T10:29:08.976Z,8.16
2023-02-24T10:31:48.218Z,8.07
2023-02-24T10:34:26.439Z,8.08
2023-02-24T10:36:57.040Z,8.17
2023-02-24T10:39:25.912Z,8.29
2023-02-24T10:42:15.859Z,8.37
2023-02-24T10:45:02.213Z,8.45
2023-02-24T10:47:31.546Z,8.54
2023-02-24T10:50:03.968Z,8.56
2023-02-24T10:52:59.386Z,8.58
2023-02-24T10:55:43.790Z,8.40
2023-02-24T10:58:28.969Z,8.30
2023-02-24T11:01:07.370Z,8.40
2023-02-24T11:03:42.337Z,8.54
2023-02-24T11:06:41.192Z,8.45
2023-02-24T11:09:32.088Z,8.41
2023-02-24T11:12:43.690Z,8.71
2023-02-24T11:15:38.409Z,8.74
2023-02-24T11:18:07.055Z,8.83
2023-02-24T11:20:49.300Z,8.75
2023-02-24T11:23:22.259Z,8.79
2023-02-24T11:25:53.589Z,9.18
2023-02-24T11:28:40.071Z,9.07
2023-02-24T11:31:23.564Z,8.69
2023-02-24T11:34:09.515Z,8.56
2023-02-24T11:37:16.684Z,8.55
2023-02-24T11:39:59.385Z,8.48
2023-02-24T11:42:37.165Z,8.16
2023-02-24T11:45:30.632Z,7.28
2023-02-24T11:48:15.226Z,6.96
2023-02-24T11:50:47.427Z,7.02
2023-02-24T11:53:47.023Z,7.12
2023-02-24T11:56:21.706Z,7.16
2023-02-24T11:58:52.865Z,7.07
2023-02-24T12:01:42.232Z,7.16
2023-02-24T12:04:54.581Z,7.41
2023-02-24T12:07:44.348Z,7.56
2023-02-24T12:10:28.334Z,7.66
2023-02-24T12:13:07.696Z,7.62
2023-02-24T12:15:56.308Z,7.58
2023-02-24T12:18:34.124Z,7.50
2023-02-24T12:21:07.699Z,7.55
2023-02-24T12:23:35.926Z,7.63
2023-02-24T12:26:24.696Z,7.94
2023-02-24T12:29:21.714Z,8.04
2023-02-24T12:31:53.531Z,8.12
2023-02-24T12:34:46.256Z,8.22
2023-02-24T12:37:21.891Z,8.15
2023-02-24T12:39:58.500Z,8.16
2023-02-24T12:42:43.403Z,8.43
2023-02-24T12:45:32.756Z,8.24
2023-02-24T12:48:19.312Z,8.04
2023-02-24T12:51:10.354Z,8.09
2023-02-24T12:53:41.501Z,8.37
2023-02-24T12:56:25.227Z,8.51
2023-02-24T12:58:59.942Z,8.39
2023-02-24T13:01:41.537Z,8.41
2023-02-24T13:04:34.064Z,8.32
2023-02-24T13:07:10.175Z,8.18
2023-02-24T13:10:05.120Z,8.21
2023-02-24T13:12:55.059Z,8.32
2023-02-24T13:15:27.598Z,8.20
2023-02-24T13:17:57.984Z,8.09
2023-02-24T13:20:28.259Z,7.89
2023-02-24T13:22:56.429Z,7.70
2023-02-24T13:25:30.639Z,7.74
2023-02-24T13:28:02.433Z,7.75
2023-02-24T13:30:37.127Z,7.72
2023-02-24T13:33:06.294Z,7.61
2023-02-24T13:35:36.109Z,7.53
2023-02-24T13:38:29.438Z,7.72
2023-02-24T13:41:25.089Z,7.97
2023-02-24T13:44:23.371Z,8.23
2023-02-24T13:47:09.004Z,8.18
2023-02-24T13:49:55.190Z,7.99
2023-02-24T13:52:41.297Z,7.76
2023-02-24T13:55:12.231Z,7.61
2023-02-24T13:57:57.094Z,7.35
2023-02-24T14:00:55.917Z,6.76
2023-02-24T14:03:26.885Z,5.96
2023-02-24T14:05:54.506Z,5.64
2023-02-24T14:08:41.518Z,5.50
2023-02-24T14:11:13.201Z,5.44
2023-02-24T14:13:40.824Z,5.62
2023-02-24T14:16:11.850Z,5.87
2023-02-24T14:18:40.920Z,6.15
2023-02-24T14:21:22.414Z,6.39
2023-02-24T14:24:02.550Z,6.43
2023-02-24T14:26:36.611Z,6.51
2023-02-24T14:29:07.193Z,6.72
2023-02-24T14:31:34.410Z,6.71
2023-02-24T14:34:08.683Z,6.83
2023-02-24T14:36:43.855Z,7.05
2023-02-24T14:39:25.581Z,6.60
2023-02-24T14:42:14.398Z,6.22
2023-02-24T14:44:59.470Z,5.97
2023-02-24T14:47:28.930Z,5.96
2023-02-24T14:50:04.310Z,5.91
2023-02-24T14:52:39.848Z,5.87
2023-02-24T14:55:26.091Z,6.02
2023-02-24T14:58:03.783Z,6.16
2023-02-24T15:00:35.400Z,6.20
2023-02-24T15:03:02.604Z,6.21
2023-02-24T15:05:29.714Z,6.29
2023-02-24T15:07:58.635Z,6.48
2023-02-24T15:10:28.905Z,6.55
2023-02-24T15:13:02.124Z,6.64
2023-02-24T15:15:35.014Z,6.70
2023-02-24T15:18:12.692Z,6.72
2023-02-24T15:20:41.306Z,6.74
2023-02-24T15:23:28.086Z,6.68
2023-02-24T15:25:55.278Z,6.63
2023-02-24T15:28:36.145Z,6.61
2023-02-24T15:31:17.926Z,6.67
2023-02-24T15:33:54.616Z,6.69
2023-02-24T15:36:25.653Z,6.74
2023-02-24T15:39:00.814Z,6.78
2023-02-24T15:41:45.582Z,6.82
2023-02-24T15:44:26.855Z,6.85
2023-02-24T15:46:55.191Z,6.80
2023-02-24T15:49:22.052Z,6.70
2023-02-24T15:51:52.909Z,6.62
2023-02-24T15:54:36.224Z,6.59
2023-02-24T15:57:05.546Z,6.58
2023-02-24T15:59:32.647Z,6.57
2023-02-24T16:01:59.629Z,6.50
2023-02-24T16:04:27.665Z,6.47
2023-02-24T16:06:57.144Z,6.46
2023-02-24T16:09:36.790Z,6.47
2023-02-24T16:12:16.575Z,6.43
2023-02-24T16:14:45.259Z,5.48
2023-02-24T16:17:38.974Z,4.53
2023-02-24T16:20:13.941Z,4.21
2023-02-24T16:22:42.496Z,4.20
2023-02-24T16:25:14.382Z,4.15
2023-02-24T16:27:41.747Z,4.22
2023-02-24T16:30:16.647Z,4.31
2023-02-24T16:32:46.757Z,4.38
2023-02-24T16:35:14.068Z,4.54
2023-02-24T16:37:40.982Z,4.62
2023-02-24T16:40:20.486Z,4.68
2023-02-24T16:42:49.280Z,4.79
2023-02-24T16:45:18.568Z,4.85
2023-02-24T16:47:48.164Z,4.98
2023-02-24T16:50:22.885Z,5.11
2023-02-24T16:52:50.341Z,4.95
2023-02-24T16:55:17.916Z,4.82
2023-02-24T16:57:44.793Z,4.72
2023-02-24T17:00:14.523Z,4.65
2023-02-24T17:02:44.126Z,4.57
2023-02-24T17:05:20.599Z,4.58
2023-02-24T17:07:53.822Z,4.65
2023-02-24T17:10:22.478Z,4.76
2023-02-24T17:12:49.525Z,4.83
2023-02-24T17:15:20.677Z,4.95
2023-02-24T17:17:47.887Z,5.07
2023-02-24T17:20:18.395Z,5.12
2023-02-24T17:22:46.546Z,5.15
2023-02-24T17:25:26.172Z,5.23
2023-02-24T17:27:54.647Z,5.22
2023-02-24T17:30:28.350Z,5.14
2023-02-24T17:32:56.036Z,5.05
2023-02-24T17:35:24.991Z,5.02
2023-02-24T17:37:52.719Z,5.07
2023-02-24T17:40:20.229Z,5.04
2023-02-24T17:42:47.546Z,5.04
2023-02-24T17:45:15.109Z,5.11
2023-02-24T17:47:45.282Z,5.16
2023-02-24T17:50:14.129Z,5.03
2023-02-24T17:52:41.610Z,4.92
2023-02-24T17:55:09.420Z,4.94
2023-02-24T17:57:37.071Z,4.93
2023-02-24T18:00:05.577Z,4.88
2023-02-24T18:02:39.350Z,4.80
2023-02-24T18:05:06.952Z,4.71
2023-02-24T18:07:33.929Z,4.62
2023-02-24T18:10:02.623Z,4.65
2023-02-24T18:12:29.710Z,4.62
2023-02-24T18:15:07.799Z,4.59
2023-02-24T18:17:36.189Z,4.59
2023-02-24T18:20:04.057Z,4.58
2023-02-24T18:22:30.953Z,4.61
2023-02-24T18:24:59.341Z,4.65
2023-02-24T18:27:26.557Z,4.74
2023-02-24T18:29:54.385Z,4.77
2023-02-24T18:32:21.629Z,4.75
2023-02-24T18:34:48.995Z,4.86
2023-02-24T18:37:15.891Z,5.00
2023-02-24T18:39:42.896Z,5.15
2023-02-24T18:42:10.207Z,5.27
2023-02-24T18:44:37.133Z,4.71
2023-02-24T18:47:09.534Z,4.03
2023-02-24T18:49:37.375Z,3.74
2023-02-24T18:52:05.435Z,3.81
2023-02-24T18:54:33.873Z,3.95
2023-02-24T18:57:01.140Z,4.11
2023-02-24T18:59:28.146Z,4.08
2023-02-24T19:01:57.048Z,3.97
2023-02-24T19:04:24.855Z,3.85
2023-02-24T19:06:51.944Z,3.77
2023-02-24T19:09:22.850Z,3.77
2023-02-24T19:11:50.367Z,3.78
2023-02-24T19:14:17.836Z,3.71
2023-02-24T19:16:47.756Z,3.64
2023-02-24T19:19:16.462Z,3.59
2023-02-24T19:21:48.446Z,3.63
2023-02-24T19:24:16.713Z,3.67
2023-02-24T19:26:45.915Z,3.69
2023-02-24T19:29:15.190Z,3.70
2023-02-24T19:31:43.815Z,3.78
2023-02-24T19:34:12.950Z,3.93
2023-02-24T19:36:41.255Z,4.02
2023-02-24T19:39:14.363Z,4.04
2023-02-24T19:41:42.349Z,4.04
2023-02-24T19:44:10.474Z,4.04
2023-02-24T19:46:37.846Z,4.05
2023-02-24T19:49:05.141Z,4.09
2023-02-24T19:51:32.718Z,4.09
2023-02-24T19:54:03.221Z,4.17
2023-02-24T19:56:32.691Z,4.20
2023-02-24T19:59:01.371Z,4.21
2023-02-24T20:01:30.082Z,4.20
2023-02-24T20:04:00.439Z,4.23
2023-02-24T20:06:31.468Z,4.23
2023-02-24T20:09:00.517Z,4.22
2023-02-24T20:11:33.064Z,4.30
2023-02-24T20:13:59.942Z,4.45
2023-02-24T20:16:32.016Z,4.58
2023-02-24T20:19:00.152Z,4.75
2023-02-24T20:21:28.178Z,4.82
2023-02-24T20:24:00.641Z,4.85
2023-02-24T20:26:28.846Z,4.96
2023-02-24T20:28:56.946Z,4.99
2023-02-24T20:31:24.440Z,5.00
2023-02-24T20:33:52.340Z,5.06
2023-02-24T20:36:22.793Z,5.10
2023-02-24T20:38:50.732Z,5.09
2023-02-24T20:41:19.210Z,5.11
2023-02-24T20:43:46.139Z,5.16
2023-02-24T20:46:24.418Z,5.14
2023-02-24T20:48:53.235Z,5.14
2023-02-24T20:51:20.450Z,5.12
2023-02-24T20:53:57.358Z,5.11
2023-02-24T20:56:26.654Z,5.08
2023-02-24T20:59:01.954Z,4.97
2023-02-24T21:01:30.755Z,4.80
2023-02-24T21:03:59.965Z,4.67
2023-02-24T21:06:29.140Z,4.54
2023-02-24T21:08:56.924Z,4.55
2023-02-24T21:11:24.451Z,4.58
2023-02-24T21:13:52.487Z,4.62
2023-02-24T21:16:22.422Z,4.66
2023-02-24T21:18:53.186Z,4.59
2023-02-24T21:21:21.354Z,4.59
2023-02-24T21:23:51.209Z,4.55
2023-02-24T21:26:19.924Z,4.50
2023-02-24T21:28:46.989Z,4.59
2023-02-24T21:31:17.247Z,4.60
2023-02-24T21:33:44.808Z,4.60
2023-02-24T21:36:14.517Z,4.54
2023-02-24T21:38:41.972Z,4.52
2023-02-24T21:41:14.729Z,4.47
2023-02-24T21:43:44.421Z,4.35
2023-02-24T21:46:13.331Z,4.26
2023-02-24T21:48:40.824Z,4.27
2023-02-24T21:51:10.589Z,4.35
2023-02-24T21:53:39.407Z,4.42
2023-02-24T21:56:16.764Z,4.47
2023-02-24T21:58:53.631Z,4.51
2023-02-24T22:01:24.117Z,4.59
2023-02-24T22:03:57.314Z,4.63
2023-02-24T22:06:26.295Z,4.62
2023-02-24T22:08:55.118Z,4.53
2023-02-24T22:11:22.091Z,4.60
2023-02-24T22:13:49.824Z,4.58
2023-02-24T22:16:20.160Z,4.53
2023-02-24T22:18:49.077Z,4.53
2023-02-24T22:21:19.293Z,4.57
2023-02-24T22:23:48.186Z,4.57
2023-02-24T22:26:16.920Z,4.56
2023-02-24T22:28:46.766Z,4.53
2023-02-24T22:31:18.005Z,4.48
2023-02-24T22:33:46.459Z,4.45
2023-02-24T22:36:19.283Z,4.43
2023-02-24T22:38:46.902Z,4.50
2023-02-24T22:41:22.459Z,4.58
2023-02-24T22:43:49.809Z,4.64
2023-02-24T22:46:21.346Z,4.63
2023-02-24T22:48:50.530Z,4.62
2023-02-24T22:51:19.135Z,4.71
2023-02-24T22:53:48.980Z,4.77
2023-02-24T22:56:19.574Z,4.75
2023-02-24T22:58:46.676Z,4.68
2023-02-24T23:01:27.626Z,4.55
2023-02-24T23:03:56.260Z,4.48
2023-02-24T23:06:26.237Z,4.49
2023-02-24T23:08:54.283Z,4.49
2023-02-24T23:11:27.863Z,4.44
2023-02-24T23:13:56.348Z,4.37
2023-02-24T23:16:27.431Z,4.31
2023-02-24T23:18:56.280Z,4.24
2023-02-24T23:21:33.992Z,4.26
2023-02-24T23:24:01.119Z,4.36
2023-02-24T23:26:29.589Z,4.45
2023-02-24T23:28:57.558Z,4.62
2023-02-24T23:31:24.556Z,4.63
2023-02-24T23:33:55.603Z,4.60
2023-02-24T23:36:23.641Z,4.56
2023-02-24T23:38:51.844Z,4.52
2023-02-24T23:41:18.914Z,4.48
2023-02-24T23:43:46.102Z,4.45
2023-02-24T23:46:13.709Z,4.38
2023-02-24T23:48:40.874Z,4.41
2023-02-24T23:51:14.025Z,4.46
2023-02-24T23:53:43.547Z,4.47
2023-02-24T23:56:18.992Z,4.49
2023-02-24T23:58:50.545Z,4.57
